Flight Track Log - Related Links

Times and Time Zones

All times are in EDT time to prevent confusion due to time zone crossing. See the WIG8306 flight status page for this flight to view local times or setup timezone preferences in your user account.

Time Position Orientation Groundspeed Altitude Reporting Facility
EDT Latitude Longitude Course Direction KTS MPH feet Rate Location/Type
Wed 04:25:07 AM 40.7500 -74.1167 14° North 101 116 3,900  Level New York TRACON
Wed 04:27:07 AM 40.8167 -74.1000 11° North 102 117 6,100 1,133 Climbing New York TRACON
Wed 04:28:07 AM 40.8500 -74.1000 360° North 102 117 7,300 717 Climbing New York TRACON
Wed 04:29:46 AM 40.8981 -74.0931 North 119 137 8,000 264 Climbing Boston Center
Wed 04:30:00 AM 40.9448 -74.1406 14° North  Level FlightAware Approximate
Wed 04:30:46 AM 40.9419 -74.0858 North 136 157 8,000  Level Boston Center
Wed 04:31:47 AM 40.9839 -74.0789 North 147 169 8,000  Level Boston Center
Wed 04:32:48 AM 41.0256 -74.0744 North 147 169 8,000  Level Boston Center
Wed 04:33:47 AM 41.0631 -74.0697 North 147 169 8,000  Level Boston Center
Wed 04:34:46 AM 41.1111 -74.0600 North 147 169 8,000  Level Boston Center
Wed 04:35:46 AM 41.1508 -74.0528 North 152 175 8,000  Level Boston Center
Wed 04:36:46 AM 41.1989 -74.0456 North 157 181 8,000  Level Boston Center
Wed 04:37:46 AM 41.2386 -74.0411 North 162 186 8,000  Level Boston Center
Wed 04:38:48 AM 41.2867 -74.0339 North 156 180 8,000  Level Boston Center
Wed 04:39:46 AM 41.3264 -74.0267 North 156 180 8,000  Level Boston Center
Wed 04:40:46 AM 41.3722 -74.0194 North 161 185 8,000  Level Boston Center
Wed 04:41:46 AM 41.4119 -74.0150 North 156 180 8,000  Level Boston Center
Wed 04:42:46 AM 41.4581 -74.0050 North 156 180 8,000  Level Boston Center
Wed 04:43:46 AM 41.4975 -74.0006 North 156 180 8,000  Level Boston Center
Wed 04:44:46 AM 41.5458 -73.9906 North 156 180 8,000  Level Boston Center
Wed 04:45:46 AM 41.5875 -73.9861 North 156 180 8,000  Level Boston Center
Wed 04:46:47 AM 41.6314 -73.9789 North 156 180 8,000  Level Boston Center
Wed 04:47:46 AM 41.6731 -73.9714 North 156 180 8,000  Level Boston Center
Wed 04:48:46 AM 41.7192 -73.9642 North 162 186 8,000  Level Boston Center
Wed 04:49:46 AM 41.7608 -73.9597 North 157 181 8,000 -300 Level Boston Center
Wed 04:50:46 AM 41.8089 -73.9497 North 157 181 7,400 -500 Descending Boston Center
Wed 04:51:46 AM 41.8547 -73.9453 North 162 186 7,000 -200 Descending Boston Center
Wed 04:52:46 AM 41.8986 -73.9378 North 157 181 7,000  Level Boston Center
Wed 04:53:58 AM 41.9383 -73.9333 North 157 181 7,000  Level Boston Center
Wed 04:54:58 AM 41.9864 -73.9261 North 152 175 7,000  Level Boston Center
Wed 04:55:59 AM 42.0322 -73.9158 North 152 175 7,000  Level Boston Center
Wed 04:56:58 AM 42.0719 -73.9111 North 152 175 7,000  Level Boston Center
Wed 04:57:58 AM 42.1181 -73.9039 North 147 169 7,000  Level Boston Center
Wed 04:58:58 AM 42.1556 -73.8992 North 147 169 7,000 -350 Level Boston Center
Wed 04:59:58 AM 42.2056 -73.8892 North 152 175 6,300 -800 Descending Boston Center
Wed 05:00:58 AM 42.2475 -73.8789 10° North 157 181 5,400 -900 Descending Boston Center
Wed 05:01:58 AM 42.2975 -73.8717 North 157 181 4,500 -850 Descending Boston Center
Wed 05:02:58 AM 42.3372 -73.8642 North 162 186 3,700 -750 Descending Boston Center
Wed 05:03:58 AM 42.3853 -73.8539 North 162 186 3,000 -344 Descending Boston Center
Wed 05:05:00 AM 42.4208 -73.8492 North 156 180 3,000  Level Boston Center
Wed 05:05:59 AM 42.4625 -73.8417 North 142 163 3,000  Level Boston Center
Wed 05:07:00 AM 42.4981 -73.8339 North 142 163 3,000  Level Boston Center
Wed 05:07:59 AM 42.5378 -73.8264 North 142 163 3,000  Level Boston Center
Wed 05:08:58 AM 42.5714 -73.8186 10° North 142 163 3,000 -252 Level Boston Center
Wed 05:09:58 AM 42.6172 -73.8114 North 142 163 2,500 -527 Descending Boston Center
Wed 05:11:26 AM 42.6631 -73.8008 10° North 117 135 1,700 -560 Descending Boston Center
Wed 05:12:28 AM 42.6944 -73.8072 351° North 103 119 1,100 -541 Descending Boston Center
Wed 05:13:28 AM 42.7256 -73.8053 North 100 115 600 -500 Descending Boston Center

Login

Don't have an account? Register now (free) for customized features, flight alerts, and more!